Time;durP1;ratioP1;P1;durP2;ratioP2;P2;SDS_P1;SDS_P2;PMS_P1;PMS_P2;Temp;Humidity;BMP_temperature;BMP_pressure;BME280_temperature;BME280_humidity;BME280_pressure;Samples;Min_cycle;Max_cycle;Signal;HPM_P1;HPM_P2
2024/04/05 00:01:58;;;;;;;5.30;3.10;;;;;;;22.58;27.20;100685.48;106973;1270;70019;-85
2024/04/05 00:04:24;;;;;;;4.20;3.20;;;;;;;22.58;27.23;100687.38;107050;1267;74277;-85
2024/04/05 00:06:49;;;;;;;6.70;3.50;;;;;;;22.58;27.22;100689.63;106974;1270;70010;-85
2024/04/05 00:09:15;;;;;;;5.10;3.10;;;;;;;22.58;27.19;100695.69;106969;1270;69969;-85
2024/04/05 00:11:41;;;;;;;4.40;3.00;;;;;;;22.57;27.17;100689.28;106908;1270;70006;-85
2024/04/05 00:16:49;;;;;;;5.90;3.10;;;;;;;22.57;27.20;100688.10;107550;1264;82792;-85
2024/04/05 00:19:15;;;;;;;5.00;3.50;;;;;;;22.57;27.18;100687.13;107236;1268;70031;-85
2024/04/05 00:21:40;;;;;;;4.70;3.30;;;;;;;22.57;27.21;100687.08;107249;1265;70021;-85
2024/04/05 00:24:06;;;;;;;5.30;3.10;;;;;;;22.56;27.22;100690.16;107238;1265;69962;-85
2024/04/05 00:26:32;;;;;;;5.50;3.20;;;;;;;22.57;27.25;100693.43;107309;1267;70056;-86
2024/04/05 00:28:57;;;;;;;5.90;3.40;;;;;;;22.56;27.18;100698.41;107102;1265;72471;-85
2024/04/05 00:31:23;;;;;;;4.40;3.20;;;;;;;22.56;27.10;100699.70;107071;1265;70084;-85
2024/04/05 00:33:48;;;;;;;4.90;3.20;;;;;;;22.56;27.14;100701.55;107050;1264;70003;-85
2024/04/05 00:36:15;;;;;;;4.30;3.20;;;;;;;22.55;27.18;100706.58;107232;1264;69999;-87
2024/04/05 00:38:40;;;;;;;7.70;3.30;;;;;;;22.56;27.14;100707.69;107311;1266;69859;-87
2024/04/05 00:41:10;;;;;;;4.30;3.00;;;;;;;22.56;27.15;100703.88;107283;1264;70097;-91
2024/04/05 00:43:36;;;;;;;4.10;3.30;;;;;;;22.55;27.17;100708.06;107241;1265;69817;-87
2024/04/05 00:46:02;;;;;;;4.40;3.40;;;;;;;22.55;27.21;100704.46;107327;1265;69895;-86
2024/04/05 00:48:27;;;;;;;4.70;3.30;;;;;;;22.55;27.14;100701.39;106972;1264;69927;-86
2024/04/05 00:50:53;;;;;;;4.70;3.20;;;;;;;22.54;27.20;100698.63;106887;1265;69881;-86
2024/04/05 00:53:20;;;;;;;4.70;3.60;;;;;;;22.54;27.24;100698.36;106727;1265;69915;-86
2024/04/05 00:55:47;;;;;;;3.80;3.30;;;;;;;22.54;27.17;100701.18;106742;1270;74220;-86
2024/04/05 00:58:13;;;;;;;5.60;3.50;;;;;;;22.54;27.12;100698.73;106937;1270;82659;-86
2024/04/05 01:00:38;;;;;;;4.20;3.30;;;;;;;22.53;27.09;100702.47;106801;1265;69898;-86
2024/04/05 01:03:04;;;;;;;4.60;3.60;;;;;;;22.53;27.20;100702.05;106896;1268;70013;-86
2024/04/05 01:05:29;;;;;;;4.80;3.20;;;;;;;22.52;27.13;100704.77;106887;1265;69927;-87
2024/04/05 01:08:04;;;;;;;5.00;3.60;;;;;;;22.52;27.08;100704.05;106877;1265;69925;-92
2024/04/05 01:10:30;;;;;;;5.20;3.70;;;;;;;22.51;27.11;100707.19;106853;1269;72677;-86
2024/04/05 01:13:06;;;;;;;3.70;3.20;;;;;;;22.51;27.21;100712.98;107156;1268;69947;-86
2024/04/05 01:15:32;;;;;;;5.90;3.60;;;;;;;22.51;27.21;100717.34;106870;1269;69840;-87
2024/04/05 01:18:08;;;;;;;4.50;3.40;;;;;;;22.51;27.15;100716.02;106833;1269;69834;-86
2024/04/05 01:20:34;;;;;;;4.60;3.70;;;;;;;22.51;27.09;100718.42;106983;1264;82904;-87
2024/04/05 01:23:10;;;;;;;4.60;3.40;;;;;;;22.50;27.10;100718.48;106934;1266;72393;-87
2024/04/05 01:25:36;;;;;;;4.70;3.40;;;;;;;22.50;27.05;100722.27;107072;1263;69916;-86
2024/04/05 01:28:04;;;;;;;5.70;3.30;;;;;;;22.50;27.03;100723.95;107100;1266;69943;-86
2024/04/05 01:30:30;;;;;;;5.40;3.60;;;;;;;22.49;27.18;100733.35;107055;1268;69817;-86
2024/04/05 01:32:59;;;;;;;4.60;3.40;;;;;;;22.50;27.08;100735.20;106890;1268;69890;-86
2024/04/05 01:35:27;;;;;;;4.70;3.70;;;;;;;22.50;27.03;100740.84;106827;1266;72955;-86
2024/04/05 01:37:57;;;;;;;4.80;3.20;;;;;;;22.49;27.11;100737.81;107002;1268;69983;-92
2024/04/05 01:40:23;;;;;;;5.10;3.70;;;;;;;22.49;27.12;100742.89;106883;1265;67629;-86
2024/04/05 01:42:48;;;;;;;5.80;3.40;;;;;;;22.49;27.14;100742.12;106889;1265;69761;-87
2024/04/05 01:45:14;;;;;;;4.10;3.40;;;;;;;22.48;27.08;100742.95;106761;1266;69988;-86
2024/04/05 01:47:39;;;;;;;4.00;3.30;;;;;;;22.48;27.21;100746.17;106864;1265;70047;-86
2024/04/05 01:50:05;;;;;;;6.00;3.90;;;;;;;22.48;27.07;100743.86;106903;1264;70397;-86
2024/04/05 01:52:31;;;;;;;4.80;3.80;;;;;;;22.47;27.09;100742.13;106688;1264;73261;-86
2024/04/05 01:54:57;;;;;;;3.90;3.50;;;;;;;22.47;27.16;100743.09;106900;1264;70052;-86
2024/04/05 01:57:23;;;;;;;5.00;3.40;;;;;;;22.47;27.12;100749.96;107105;1263;69929;-86
2024/04/05 01:59:53;;;;;;;4.80;3.70;;;;;;;22.46;27.19;100747.36;107143;1266;70566;-86
2024/04/05 02:02:19;;;;;;;5.60;3.30;;;;;;;22.46;27.12;100749.05;106881;1267;69896;-86
2024/04/05 02:04:53;;;;;;;5.00;3.50;;;;;;;22.46;27.15;100755.34;106774;1264;70054;-91
2024/04/05 02:07:23;;;;;;;6.70;3.70;;;;;;;22.46;27.25;100754.16;106919;1266;83865;-87
2024/04/05 02:09:49;;;;;;;5.90;3.70;;;;;;;22.45;27.19;100757.36;107034;1264;72183;-86
2024/04/05 02:12:15;;;;;;;4.50;3.60;;;;;;;22.46;27.19;100755.15;106868;1266;70024;-86
2024/04/05 02:14:41;;;;;;;4.90;3.50;;;;;;;22.45;27.18;100756.38;107032;1264;69934;-86
2024/04/05 02:17:06;;;;;;;4.70;3.50;;;;;;;22.46;27.22;100759.35;106959;1266;70052;-86
2024/04/05 02:19:32;;;;;;;4.90;3.80;;;;;;;22.45;27.14;100758.48;106635;1264;70074;-86
2024/04/05 02:21:58;;;;;;;4.30;3.40;;;;;;;22.45;27.23;100759.55;107040;1267;70059;-86
2024/04/05 02:24:23;;;;;;;5.90;3.60;;;;;;;22.45;27.20;100763.09;107249;1266;67661;-87
2024/04/05 02:26:50;;;;;;;4.40;3.70;;;;;;;22.45;27.15;100765.86;107303;1268;69963;-87
2024/04/05 02:29:17;;;;;;;4.40;3.40;;;;;;;22.44;27.19;100762.99;107365;1269;69849;-87
2024/04/05 02:31:47;;;;;;;4.80;3.50;;;;;;;22.45;27.16;100766.42;107257;1264;70038;-92
2024/04/05 02:34:13;;;;;;;5.70;3.70;;;;;;;22.45;27.10;100767.30;106848;1267;69843;-87
2024/04/05 02:36:39;;;;;;;4.90;3.50;;;;;;;22.44;27.26;100765.10;106870;1266;70004;-87
2024/04/05 02:39:07;;;;;;;4.80;3.50;;;;;;;22.44;27.24;100764.27;107047;1266;70015;-86
2024/04/05 02:41:36;;;;;;;4.50;3.20;;;;;;;22.44;27.19;100760.85;107005;1269;82997;-87
2024/04/05 02:44:02;;;;;;;6.10;3.50;;;;;;;22.43;27.14;100761.20;107265;1264;73345;-87
2024/04/05 02:46:27;;;;;;;5.50;3.30;;;;;;;22.44;27.20;100759.25;106811;1269;70193;-86
2024/04/05 02:48:53;;;;;;;6.30;3.30;;;;;;;22.44;27.19;100759.81;106992;1267;70017;-86
2024/04/05 02:51:19;;;;;;;6.30;3.20;;;;;;;22.43;27.17;100761.76;107001;1264;69867;-87
2024/04/05 02:53:46;;;;;;;7.00;3.40;;;;;;;22.43;27.27;100767.91;107174;1269;69944;-87
2024/04/05 02:56:16;;;;;;;7.60;3.50;;;;;;;22.43;27.29;100767.29;107438;1266;69929;-87
2024/04/05 02:58:42;;;;;;;7.70;3.20;;;;;;;22.43;27.19;100774.10;107190;1271;70065;-87
2024/04/05 03:01:08;;;;;;;3.50;2.40;;;;;;;22.42;27.30;100772.05;107115;1269;70033;-86
2024/04/05 03:03:33;;;;;;;3.80;2.60;;;;;;;22.43;27.34;100773.65;106991;1265;68256;-86
2024/04/05 03:05:59;;;;;;;3.50;2.80;;;;;;;22.44;27.48;100779.45;107140;1264;69912;-86
2024/04/05 03:08:24;;;;;;;5.10;3.30;;;;;;;22.44;27.54;100785.55;107332;1266;69991;-86
2024/04/05 03:10:50;;;;;;;4.00;3.40;;;;;;;22.45;27.56;100787.75;107314;1264;67913;-86
2024/04/05 03:13:16;;;;;;;4.40;3.50;;;;;;;22.45;27.55;100792.11;106894;1264;70024;-86
2024/04/05 03:15:41;;;;;;;10.80;4.40;;;;;;;22.45;27.47;100793.96;107304;1268;70494;-86
2024/04/05 03:18:07;;;;;;;17.00;5.00;;;;;;;22.45;27.61;100799.75;107187;1264;70019;-86
2024/04/05 03:20:32;;;;;;;19.90;5.00;;;;;;;22.41;27.56;100802.05;107220;1269;69978;-86
2024/04/05 03:22:58;;;;;;;11.70;4.90;;;;;;;22.22;27.56;100805.84;107662;1268;69999;-86
2024/04/05 03:28:07;;;;;;;9.50;5.30;;;;;;;21.72;28.38;100810.85;107353;1263;72987;-86
2024/04/05 03:30:32;;;;;;;10.50;5.00;;;;;;;21.56;28.54;100811.64;107067;1264;69991;-86
2024/04/05 03:32:58;;;;;;;12.00;5.20;;;;;;;21.43;28.47;100815.86;107291;1265;69897;-85
2024/04/05 03:35:24;;;;;;;16.30;5.70;;;;;;;21.30;28.41;100817.96;106971;1263;70076;-85
2024/04/05 03:37:53;;;;;;;15.50;5.40;;;;;;;21.18;28.63;100825.67;107352;1265;69880;-85
2024/04/05 03:42:58;;;;;;;35.30;6.20;;;;;;;20.93;28.62;100829.70;106779;1264;69893;-85
2024/04/05 03:45:24;;;;;;;15.90;6.30;;;;;;;20.85;28.61;100833.44;106792;1264;70023;-85
2024/04/05 03:47:50;;;;;;;16.70;5.20;;;;;;;20.76;28.74;100831.16;106766;1269;70002;-85
2024/04/05 03:50:15;;;;;;;11.80;5.60;;;;;;;20.71;28.81;100833.92;106582;1264;70072;-85
2024/04/05 03:52:41;;;;;;;11.10;5.10;;;;;;;20.70;28.78;100832.70;106993;1265;70023;-86
2024/04/05 03:55:06;;;;;;;13.40;5.40;;;;;;;20.72;28.90;100828.36;107032;1265;74285;-85
2024/04/05 03:57:32;;;;;;;8.30;5.10;;;;;;;20.77;28.95;100827.91;106981;1266;70033;-85
2024/04/05 03:59:58;;;;;;;12.20;5.70;;;;;;;20.83;29.20;100830.20;107014;1264;70008;-85
2024/04/05 04:02:24;;;;;;;11.70;5.30;;;;;;;20.89;28.99;100831.77;106926;1264;69873;-85
2024/04/05 04:04:53;;;;;;;9.40;4.70;;;;;;;20.94;29.01;100834.56;107033;1265;70011;-86
2024/04/05 04:09:57;;;;;;;9.10;4.30;;;;;;;21.04;28.72;100842.25;107132;1265;82080;-85
2024/04/05 04:12:23;;;;;;;10.80;4.80;;;;;;;21.08;28.64;100843.74;107293;1264;70026;-86
2024/04/05 04:14:49;;;;;;;11.70;4.90;;;;;;;21.11;28.61;100845.20;107179;1263;70021;-87
2024/04/05 04:17:15;;;;;;;8.00;4.70;;;;;;;21.14;28.57;100853.91;107134;1270;70436;-86
2024/04/05 04:19:41;;;;;;;11.40;4.80;;;;;;;21.15;28.50;100855.92;107404;1265;69947;-85
2024/04/05 04:22:07;;;;;;;9.80;4.60;;;;;;;21.17;28.54;100862.79;107502;1265;68532;-86
2024/04/05 04:24:33;;;;;;;11.80;4.60;;;;;;;21.20;28.57;100866.23;107793;1272;68820;-85
2024/04/05 04:26:58;;;;;;;13.00;5.00;;;;;;;21.22;28.62;100869.10;107631;1264;70022;-87
2024/04/05 04:29:44;;;;;;;12.80;5.00;;;;;;;21.24;28.61;100872.02;108249;1261;68348;-88
2024/04/05 04:40:46;;;;;;;14.20;4.90;;;;;;;21.26;28.50;100877.88;108554;1262;68267;-86
2024/04/05 04:43:22;;;;;;;9.00;4.40;;;;;;;21.29;28.49;100877.22;108131;1263;69267;-89
2024/04/05 04:45:48;;;;;;;12.50;5.40;;;;;;;21.32;28.52;100884.70;108737;1263;82814;-86
2024/04/05 04:48:33;;;;;;;;;;;;;;;;;;;;;
2024/04/05 04:54:07;;;;;;;17.20;4.50;;;;;;;21.39;28.37;100896.17;108473;1263;70011;-86
2024/04/05 04:56:33;;;;;;;15.70;5.00;;;;;;;21.42;28.65;100905.55;108401;1262;70558;-86
2024/04/05 04:58:59;;;;;;;18.50;5.00;;;;;;;21.45;28.63;100907.30;108221;1263;70066;-87
2024/04/05 05:01:25;;;;;;;20.90;4.90;;;;;;;21.47;28.47;100910.16;108099;1263;69968;-87
2024/04/05 05:03:53;;;;;;;13.70;5.10;;;;;;;21.50;28.50;100912.43;108390;1263;68908;-86
2024/04/05 05:06:19;;;;;;;14.20;4.90;;;;;;;21.53;28.65;100916.91;108514;1263;68394;-87
2024/04/05 05:08:45;;;;;;;13.80;4.80;;;;;;;21.55;28.41;100918.24;108322;1264;69972;-88
2024/04/05 05:11:11;;;;;;;16.40;5.50;;;;;;;21.56;28.50;100926.50;108504;1262;69793;-86
2024/04/05 05:13:38;;;;;;;25.20;6.70;;;;;;;21.58;28.44;100928.24;108530;1267;70030;-88
2024/04/05 05:16:04;;;;;;;36.20;6.40;;;;;;;21.56;28.42;100931.16;108551;1263;69877;-85
2024/04/05 05:18:29;;;;;;;26.30;6.60;;;;;;;21.50;28.48;100933.48;108282;1263;67897;-89
2024/04/05 05:23:54;;;;;;;35.20;6.90;;;;;;;21.48;28.50;100935.17;108386;1264;72195;-86
2024/04/05 05:26:19;;;;;;;56.20;8.80;;;;;;;21.47;28.46;100939.35;108392;1263;68020;-85
2024/04/05 05:28:47;;;;;;;54.40;8.00;;;;;;;21.38;28.41;100936.14;108174;1268;70028;-87
2024/04/05 05:31:13;;;;;;;38.50;7.00;;;;;;;21.33;28.45;100946.34;108330;1264;74757;-85
2024/04/05 05:33:39;;;;;;;40.20;6.80;;;;;;;21.34;28.41;100943.42;108230;1264;68382;-87
2024/04/05 05:36:05;;;;;;;34.90;7.10;;;;;;;21.35;28.60;100944.47;108530;1264;68678;-90
2024/04/05 05:38:30;;;;;;;46.50;7.50;;;;;;;21.39;28.63;100943.10;108666;1264;67876;-85
2024/04/05 05:40:56;;;;;;;43.80;7.60;;;;;;;21.42;28.69;100950.85;108538;1264;67687;-87
2024/04/05 05:43:24;;;;;;;40.50;7.50;;;;;;;21.46;28.68;100952.20;108481;1264;68422;-88
2024/04/05 05:46:08;;;;;;;42.00;7.60;;;;;;;21.50;28.64;100956.31;108384;1264;68786;-87
2024/04/05 05:48:34;;;;;;;58.70;8.50;;;;;;;21.52;28.69;100956.58;108388;1268;73228;-86
2024/04/05 05:50:59;;;;;;;41.60;7.90;;;;;;;21.56;28.63;100955.88;108482;1264;69889;-84
2024/04/05 05:53:26;;;;;;;55.20;7.90;;;;;;;21.59;28.56;100957.19;108690;1264;68301;-86
2024/04/05 05:56:02;;;;;;;31.60;7.10;;;;;;;21.61;28.53;100954.76;108564;1264;68527;-88
2024/04/05 05:58:34;;;;;;;18.10;6.00;;;;;;;21.60;28.48;100957.41;108886;1262;83127;-86
2024/04/05 06:01:12;;;;;;;15.50;5.00;;;;;;;21.52;28.44;100959.20;108593;1263;72261;-91
2024/04/05 06:03:38;;;;;;;12.30;5.70;;;;;;;21.41;28.51;100966.20;108422;1262;69989;-87
2024/04/05 06:06:06;;;;;;;18.60;5.80;;;;;;;21.30;28.36;100966.70;108553;1264;67978;-86
2024/04/05 06:08:35;;;;;;;19.60;6.00;;;;;;;21.21;28.48;100970.27;108692;1263;74195;-87
2024/04/05 06:11:01;;;;;;;15.40;6.30;;;;;;;21.15;28.58;100971.92;108687;1263;82825;-85
2024/04/05 06:13:28;;;;;;;20.20;6.20;;;;;;;21.12;28.58;100969.34;108813;1263;69907;-86
2024/04/05 06:15:58;;;;;;;16.10;5.50;;;;;;;21.10;28.74;100971.94;108515;1263;68329;-92
2024/04/05 06:18:26;;;;;;;18.60;6.20;;;;;;;21.15;28.84;100969.98;108707;1262;68668;-87
2024/04/05 06:20:55;;;;;;;28.00;6.00;;;;;;;21.20;28.96;100975.53;108772;1263;74325;-86
2024/04/05 06:23:26;;;;;;;28.70;5.70;;;;;;;21.26;28.98;100983.26;108664;1265;82155;-87
2024/04/05 06:25:58;;;;;;;18.80;6.30;;;;;;;21.32;28.93;100984.77;108554;1263;73281;-87
2024/04/05 06:28:26;;;;;;;25.80;6.60;;;;;;;21.38;29.02;100987.63;108934;1263;67742;-88
2024/04/05 06:31:10;;;;;;;20.40;6.60;;;;;;;21.43;29.03;100994.61;109117;1263;67476;31
2024/04/05 06:33:36;;;;;;;23.60;6.80;;;;;;;21.47;28.90;100997.63;109057;1261;74158;-85
2024/04/05 06:36:02;;;;;;;29.30;7.20;;;;;;;21.52;28.88;100994.88;108841;1261;67653;-85
2024/04/05 06:38:29;;;;;;;21.00;6.90;;;;;;;21.56;28.95;100996.20;108927;1262;67730;-86
2024/04/05 06:40:58;;;;;;;23.50;6.10;;;;;;;21.59;28.87;101003.16;108676;1263;69992;-83
2024/04/05 06:43:27;;;;;;;24.10;6.50;;;;;;;21.63;29.01;101005.54;108746;1263;68252;-84
2024/04/05 06:45:57;;;;;;;20.30;6.50;;;;;;;21.67;28.83;101009.64;108825;1261;74487;-84
2024/04/05 06:48:23;;;;;;;18.10;5.10;;;;;;;21.68;28.81;101017.17;108585;1263;82816;-86
2024/04/05 06:50:49;;;;;;;21.10;4.70;;;;;;;21.68;28.71;101019.98;108868;1261;67495;-83
2024/04/05 06:53:16;;;;;;;19.80;4.70;;;;;;;21.67;28.74;101026.80;108783;1262;68656;-84
2024/04/05 06:55:46;;;;;;;18.30;4.70;;;;;;;21.61;28.74;101023.99;108785;1262;68056;-86
2024/04/05 06:58:14;;;;;;;16.00;4.60;;;;;;;21.60;28.97;101032.54;108549;1263;74469;-84
2024/04/05 07:00:55;;;;;;;11.30;5.20;;;;;;;21.62;28.86;101033.18;108385;1263;82854;-90
2024/04/05 07:03:23;;;;;;;18.80;5.40;;;;;;;21.64;28.87;101035.14;108517;1262;72383;-84
2024/04/05 07:05:57;;;;;;;10.60;4.60;;;;;;;21.67;28.91;101040.59;108596;1262;68606;-84
2024/04/05 07:08:23;;;;;;;16.50;5.00;;;;;;;21.70;28.86;101041.62;108334;1262;67839;-85
2024/04/05 07:10:49;;;;;;;16.60;5.00;;;;;;;21.72;29.03;101042.56;108212;1263;68377;-86
2024/04/05 07:13:14;;;;;;;15.60;4.60;;;;;;;21.75;28.97;101044.94;108238;1267;69901;-85
2024/04/05 07:15:48;;;;;;;14.10;5.30;;;;;;;21.78;29.08;101050.48;108321;1267;67942;-91
2024/04/05 07:18:14;;;;;;;20.10;4.80;;;;;;;21.82;29.06;101050.34;108328;1263;68245;-83
2024/04/05 07:20:40;;;;;;;19.20;4.90;;;;;;;21.85;29.11;101052.16;108487;1262;67954;-83
2024/04/05 07:23:05;;;;;;;19.00;5.00;;;;;;;21.87;28.96;101052.48;108585;1262;69895;-83
2024/04/05 07:25:34;;;;;;;27.50;4.80;;;;;;;21.89;28.85;101052.19;108697;1263;83807;-84
2024/04/05 07:28:01;;;;;;;13.10;4.40;;;;;;;21.91;29.11;101053.58;108613;1263;69995;-81
2024/04/05 07:33:11;;;;;;;13.30;4.10;;;;;;;21.93;29.07;101049.02;108169;1264;69831;-84
2024/04/05 07:35:36;;;;;;;11.90;4.00;;;;;;;21.94;29.00;101051.73;108309;1264;67611;-86
2024/04/05 07:38:02;;;;;;;18.60;4.40;;;;;;;21.93;29.01;101058.34;108211;1264;68560;-85
2024/04/05 07:40:30;;;;;;;18.30;3.70;;;;;;;21.93;28.97;101059.63;108208;1264;69054;-85
2024/04/05 07:45:50;;;;;;;9.00;3.40;;;;;;;21.95;28.65;101060.09;107939;1265;68266;-86
2024/04/05 07:48:18;;;;;;;12.30;4.00;;;;;;;21.95;28.58;101062.35;107894;1271;69989;-86
2024/04/05 07:57:21;;;;;;;13.00;5.80;;;;;;;21.97;28.65;101059.50;108453;1265;67914;-86
2024/04/05 07:59:47;;;;;;;16.40;8.60;;;;;;;21.98;28.66;101057.50;108385;1263;68661;-83
2024/04/05 08:02:13;;;;;;;25.90;8.10;;;;;;;21.99;28.67;101056.33;108286;1262;68527;-86
2024/04/05 08:04:40;;;;;;;11.10;3.80;;;;;;;22.01;28.63;101053.27;108534;1262;67603;-85
2024/04/05 08:07:06;;;;;;;8.60;3.20;;;;;;;22.00;28.39;101053.88;108393;1262;68191;-87
2024/04/05 08:09:38;;;;;;;11.40;3.10;;;;;;;21.97;28.45;101051.70;108671;1263;67776;31
2024/04/05 08:44:14;;;;;;;7.40;3.20;;;;;;;21.98;28.27;101042.89;108857;1262;75530;-87
2024/04/05 08:46:43;;;;;;;9.90;2.80;;;;;;;21.98;28.07;101044.17;108753;1265;70017;-89
2024/04/05 08:49:11;;;;;;;11.90;2.40;;;;;;;21.98;28.20;101045.66;108478;1264;72227;-89
2024/04/05 08:51:40;;;;;;;6.50;1.80;;;;;;;21.99;27.92;101048.23;108643;1264;69973;-86
2024/04/05 08:54:07;;;;;;;4.30;1.80;;;;;;;21.97;27.86;101045.40;108706;1264;67389;-86
2024/04/05 08:56:33;;;;;;;8.30;1.40;;;;;;;21.93;27.68;101041.48;108771;1264;74405;-85
2024/04/05 08:58:59;;;;;;;3.60;1.60;;;;;;;21.90;27.57;101043.52;108593;1264;68100;-86
2024/04/05 09:09:49;;;;;;;5.50;1.50;;;;;;;21.94;27.79;101036.77;108801;1262;75002;-89
2024/04/05 09:24:26;;;;;;;;;;;;;;;21.99;27.72;101026.09;108341;1265;73277;-84
2024/04/05 09:27:00;;;;;;;9.00;4.30;;;;;;;21.96;27.73;101027.46;108389;1265;70013;-86
2024/04/05 09:29:27;;;;;;;17.40;3.10;;;;;;;21.99;27.73;101025.78;108227;1265;72278;-86
2024/04/05 09:31:54;;;;;;;11.60;3.40;;;;;;;21.97;27.60;101027.11;108269;1265;69793;-87
2024/04/05 09:34:21;;;;;;;14.20;4.40;;;;;;;21.98;27.81;101023.33;108321;1265;67674;-86
2024/04/05 09:36:47;;;;;;;7.20;3.30;;;;;;;21.99;27.69;101027.28;108084;1265;74251;-86
2024/04/05 09:39:18;;;;;;;9.50;2.30;;;;;;;21.99;27.80;101026.30;108166;1265;69930;-86
2024/04/05 09:41:45;;;;;;;8.90;2.20;;;;;;;21.98;27.64;101031.07;107996;1265;72220;-86
2024/04/05 09:44:12;;;;;;;13.70;2.20;;;;;;;21.96;27.64;101026.95;108088;1266;69849;-86
2024/04/05 09:46:39;;;;;;;29.40;15.10;;;;;;;21.93;27.60;101023.61;108190;1265;68025;-88
2024/04/05 09:49:05;;;;;;;17.90;4.30;;;;;;;21.91;27.61;101025.08;108278;1265;69854;-86
2024/04/05 09:51:48;;;;;;;12.40;3.20;;;;;;;21.89;27.61;101022.77;108187;1266;68625;-89
2024/04/05 09:54:15;;;;;;;19.30;3.40;;;;;;;21.90;27.58;101026.47;108094;1265;72393;-87
2024/04/05 09:56:42;;;;;;;16.90;2.70;;;;;;;21.90;27.61;101029.39;108032;1265;68205;-86
2024/04/05 09:59:22;;;;;;;13.70;2.60;;;;;;;21.93;27.74;101025.45;108045;1265;69865;-88
2024/04/05 10:01:53;;;;;;;19.20;3.10;;;;;;;21.96;27.72;101022.34;108155;1267;74228;-85
2024/04/05 10:04:28;;;;;;;18.50;3.40;;;;;;;21.99;27.69;101018.83;108258;1267;82790;-87
2024/04/05 10:15:44;;;;;;;13.60;3.10;;;;;;;22.12;27.98;101026.31;108713;1265;73825;-89
2024/04/05 10:27:33;;;;;;;8.90;3.70;;;;;;;22.20;27.85;101023.46;108206;1269;557343;-90
2024/04/05 10:35:40;;;;;;;10.60;5.30;;;;;;;22.25;27.80;101022.35;108094;1262;552285;-89
2024/04/05 10:41:08;;;;;;;13.10;6.70;;;;;;;22.28;27.73;101014.41;107777;1264;552007;-90
2024/04/05 10:46:37;;;;;;;11.30;6.60;;;;;;;22.29;27.70;101012.63;107692;1263;559477;-89
2024/04/05 10:49:27;;;;;;;10.80;7.40;;;;;;;22.29;27.65;101015.28;108699;1264;72074;-91
2024/04/05 10:51:58;;;;;;;12.60;7.80;;;;;;;22.30;27.67;101010.11;108414;1264;70051;-89
2024/04/05 10:54:24;;;;;;;35.50;26.30;;;;;;;22.29;27.65;101009.34;108622;1263;69721;-90
2024/04/05 10:59:33;;;;;;;15.10;6.00;;;;;;;22.30;27.71;101016.21;108510;1264;83209;-86
2024/04/05 11:35:05;;;;;;;4.00;1.30;;;;;;;21.97;27.80;101016.24;108499;1265;67894;-89
2024/04/05 11:37:31;;;;;;;13.20;1.30;;;;;;;21.97;27.70;101007.84;108588;1265;69715;-90
2024/04/05 11:42:39;;;;;;;6.40;1.60;;;;;;;21.98;27.24;101004.48;108628;1265;82928;-90
2024/04/05 11:45:06;;;;;;;9.90;1.60;;;;;;;21.99;27.23;101005.34;108151;1265;73358;-86
2024/04/05 11:50:25;;;;;;;7.40;1.40;;;;;;;22.01;27.21;101001.82;108708;1265;67792;-90
2024/04/05 11:52:51;;;;;;;6.20;1.10;;;;;;;22.00;27.18;100992.17;108577;1264;73154;-89
2024/04/05 11:55:20;;;;;;;8.10;1.50;;;;;;;21.97;27.01;100980.75;108648;1271;69875;-89
2024/04/05 11:57:46;;;;;;;7.10;1.50;;;;;;;21.95;27.01;100979.61;108588;1264;72682;-87
2024/04/05 12:00:13;;;;;;;5.50;1.40;;;;;;;21.95;27.06;100984.77;108330;1266;68065;-88
2024/04/05 12:08:09;;;;;;;5.90;1.50;;;;;;;22.02;27.03;100975.64;107988;1262;551890;-89
2024/04/05 12:10:35;;;;;;;2.50;1.50;;;;;;;22.04;26.98;100975.02;108477;1263;73382;-87
2024/04/05 12:25:16;;;;;;;4.80;1.40;;;;;;;22.06;26.70;100956.38;108330;1263;557599;-88
2024/04/05 12:27:48;;;;;;;5.90;1.30;;;;;;;22.06;26.65;100955.31;108472;1267;68099;-88
2024/04/05 12:33:03;;;;;;;10.20;2.00;;;;;;;22.09;26.56;100953.77;108843;1266;74334;-91
2024/04/05 13:15:16;;;;;;;10.20;1.50;;;;;;;22.03;26.65;100921.12;108755;1265;67418;-89
2024/04/05 13:20:45;;;;;;;10.50;1.50;;;;;;;22.05;26.65;100918.91;108611;1265;82867;-89
2024/04/05 13:25:55;;;;;;;17.30;1.80;;;;;;;22.09;26.73;100921.65;108253;1267;67654;-87
2024/04/05 13:28:22;;;;;;;8.90;1.40;;;;;;;22.12;26.94;100920.58;108182;1269;70011;-87
2024/04/05 13:30:58;;;;;;;9.80;1.50;;;;;;;22.14;26.78;100912.39;108007;1269;67859;-86
2024/04/05 13:33:24;;;;;;;14.90;2.00;;;;;;;22.16;26.71;100913.82;108433;1267;84012;-86
2024/04/05 13:35:51;;;;;;;5.40;1.60;;;;;;;22.18;26.77;100914.99;108152;1267;70055;-87
2024/04/05 13:38:39;;;;;;;8.90;1.50;;;;;;;22.20;26.85;100908.95;108125;1268;68220;-92
2024/04/05 13:41:05;;;;;;;5.70;1.40;;;;;;;22.21;26.85;100907.68;108206;1267;67839;-87
2024/04/05 13:43:38;;;;;;;7.00;1.40;;;;;;;22.22;26.77;100907.27;108167;1267;67793;-87
2024/04/05 13:46:09;;;;;;;5.20;1.40;;;;;;;22.23;26.77;100906.05;108177;1268;81965;-86
2024/04/05 13:48:35;;;;;;;3.70;1.10;;;;;;;22.25;26.76;100904.83;108367;1267;73133;-87
2024/04/05 13:51:01;;;;;;;4.70;1.50;;;;;;;22.26;26.83;100904.36;108357;1268;69998;-87
2024/04/05 13:53:32;;;;;;;2.30;1.10;;;;;;;22.26;26.69;100899.08;108281;1267;68069;-86
2024/04/05 13:55:58;;;;;;;5.30;1.20;;;;;;;22.28;26.75;100897.27;108374;1266;74360;-86
2024/04/05 13:58:25;;;;;;;2.30;1.60;;;;;;;22.29;26.59;100897.54;108315;1269;67933;-87
2024/04/05 14:00:51;;;;;;;4.90;1.60;;;;;;;22.30;26.87;100893.91;108207;1268;71517;-88
2024/04/05 14:03:17;;;;;;;5.10;1.50;;;;;;;22.32;27.19;100897.86;108290;1269;69064;-87
2024/04/05 14:05:43;;;;;;;3.40;1.20;;;;;;;22.34;27.28;100894.06;108167;1268;67686;-85
2024/04/05 14:08:21;;;;;;;7.10;1.40;;;;;;;22.35;27.22;100893.65;108142;1267;68780;-90
2024/04/05 14:10:47;;;;;;;20.60;1.80;;;;;;;22.36;27.18;100901.09;108148;1268;82862;-85
2024/04/05 14:13:13;;;;;;;6.00;1.30;;;;;;;22.35;27.09;100903.15;108009;1267;69966;-86
2024/04/05 14:15:39;;;;;;;12.10;1.70;;;;;;;22.35;26.93;100902.27;108253;1267;67645;-86
2024/04/05 14:18:07;;;;;;;9.70;1.50;;;;;;;22.34;27.00;100901.55;108258;1268;69958;-86
2024/04/05 14:20:40;;;;;;;8.90;1.40;;;;;;;22.33;26.88;100902.01;108236;1265;69865;-85
2024/04/05 14:23:21;;;;;;;9.40;1.60;;;;;;;22.33;26.75;100898.31;108147;1272;83041;-90
2024/04/05 14:25:53;;;;;;;4.90;1.40;;;;;;;22.33;26.66;100896.78;108172;1265;73240;-87
2024/04/05 14:28:28;;;;;;;4.20;1.20;;;;;;;22.33;26.68;100898.53;108287;1265;69929;-86
2024/04/05 14:30:55;;;;;;;7.50;1.40;;;;;;;22.32;26.71;100895.30;108544;1265;67558;-86
2024/04/05 14:33:21;;;;;;;5.50;1.20;;;;;;;22.32;26.65;100898.11;108415;1265;74274;-86
2024/04/05 14:36:02;;;;;;;3.50;1.40;;;;;;;22.31;26.61;100892.77;108544;1265;67592;-86
2024/04/05 14:38:27;;;;;;;3.50;1.40;;;;;;;22.30;26.67;100892.83;108532;1265;71357;-87
2024/04/05 14:40:57;;;;;;;6.20;1.30;;;;;;;22.29;26.57;100894.35;108609;1265;68079;-86
2024/04/05 14:43:39;;;;;;;6.30;1.20;;;;;;;22.29;26.53;100893.14;108409;1267;67941;-86
2024/04/05 14:46:05;;;;;;;10.50;1.40;;;;;;;22.28;26.59;100894.41;108016;1267;69912;-86
2024/04/05 14:48:31;;;;;;;8.80;1.20;;;;;;;22.27;26.61;100896.31;107962;1267;68102;-86
2024/04/05 14:50:59;;;;;;;6.70;1.30;;;;;;;22.27;26.61;100896.57;107942;1267;67976;-85
2024/04/05 14:53:25;;;;;;;12.10;1.80;;;;;;;22.26;26.54;100895.64;107792;1267;68799;-85
2024/04/05 14:58:40;;;;;;;18.80;2.20;;;;;;;22.25;26.44;100889.60;107978;1265;74496;-85
2024/04/05 15:01:06;;;;;;;20.50;2.30;;;;;;;22.24;26.46;100890.56;107861;1266;82819;-86
2024/04/05 15:03:32;;;;;;;10.50;1.70;;;;;;;22.22;26.54;100891.64;107805;1265;69084;-86
2024/04/05 15:06:05;;;;;;;5.70;1.50;;;;;;;22.21;26.55;100893.23;107856;1269;70024;-86
2024/04/05 15:08:37;;;;;;;3.40;1.30;;;;;;;22.18;26.43;100886.25;107787;1265;69795;-86